Time;durP1;ratioP1;P1;durP2;ratioP2;P2;SDS_P1;SDS_P2;PMS_P1;PMS_P2;Temp;Humidity;BMP_temperature;BMP_pressure;BME280_temperature;BME280_humidity;BME280_pressure;Samples;Min_cycle;Max_cycle;Signal;HPM_P1;HPM_P2
2021/03/01 00:00:13;;;;;;;123.22;13.98;;;3.40;91.60;;;;;;6098554;23;20020;-81
2021/03/01 00:02:39;;;;;;;126.30;13.35;;;3.50;91.70;;;;;;6124981;23;20020;-82
2021/03/01 00:05:05;;;;;;;109.65;13.10;;;3.40;91.60;;;;;;6099598;23;20017;-82
2021/03/01 00:07:31;;;;;;;108.40;12.77;;;3.40;91.60;;;;;;6099857;23;20017;-82
2021/03/01 00:09:57;;;;;;;101.05;12.68;;;3.40;91.60;;;;;;6123186;23;20009;-82
2021/03/01 00:12:23;;;;;;;140.50;13.20;;;3.40;91.60;;;;;;6101334;23;20349;-82
2021/03/01 00:14:48;;;;;;;80.50;13.43;;;3.40;91.60;;;;;;6122403;23;20025;-82
2021/03/01 00:17:14;;;;;;;141.23;12.85;;;3.40;91.70;;;;;;6099315;23;20013;-82
2021/03/01 00:19:40;;;;;;;142.82;12.55;;;3.40;91.80;;;;;;6098337;23;20028;-84
2021/03/01 00:22:06;;;;;;;146.55;13.82;;;3.40;91.80;;;;;;6123081;23;20341;-82
2021/03/01 00:24:31;;;;;;;112.75;14.38;;;3.30;91.70;;;;;;6099105;23;20078;-83
2021/03/01 00:26:57;;;;;;;152.63;15.20;;;3.30;91.80;;;;;;6073794;23;20362;-83
2021/03/01 00:29:23;;;;;;;172.32;13.20;;;3.30;91.70;;;;;;6098381;23;20081;-83
2021/03/01 00:31:48;;;;;;;152.98;13.68;;;3.30;91.80;;;;;;6097885;23;20116;-82
2021/03/01 00:34:14;;;;;;;185.40;14.32;;;3.20;91.60;;;;;;6122519;23;20020;-83
2021/03/01 00:36:40;;;;;;;147.45;13.63;;;3.20;91.70;;;;;;6098113;23;20037;-82
2021/03/01 00:39:06;;;;;;;109.95;13.60;;;3.10;91.80;;;;;;6099156;23;20021;-82
2021/03/01 00:41:31;;;;;;;205.85;15.63;;;3.10;91.80;;;;;;6097894;23;20013;-83
2021/03/01 00:43:57;;;;;;;144.23;14.35;;;3.10;91.80;;;;;;6098353;23;20037;-82
2021/03/01 00:46:23;;;;;;;154.25;14.82;;;3.10;92.10;;;;;;6075672;23;20024;-83
2021/03/01 00:48:49;;;;;;;149.02;14.90;;;3.10;91.80;;;;;;6098958;23;20327;-83
2021/03/01 00:51:14;;;;;;;127.75;12.38;;;3.00;91.80;;;;;;6097229;23;20017;-83
2021/03/01 00:53:42;;;;;;;254.07;13.98;;;3.10;91.90;;;;;;6121917;23;20017;-82
2021/03/01 00:56:11;;;;;;;251.25;14.55;;;3.10;91.80;;;;;;6098844;23;20021;-83
2021/03/01 00:58:36;;;;;;;142.88;13.02;;;3.00;91.90;;;;;;6122768;23;20066;-83
2021/03/01 01:01:02;;;;;;;109.43;13.10;;;2.90;91.80;;;;;;6095579;23;20066;-82
2021/03/01 01:03:28;;;;;;;305.95;17.85;;;2.90;91.80;;;;;;6120415;23;20066;-82
2021/03/01 01:05:54;;;;;;;170.15;15.43;;;2.90;91.90;;;;;;6098273;23;20020;-82
2021/03/01 01:08:19;;;;;;;137.93;14.65;;;2.90;91.90;;;;;;6098888;23;20036;-82
2021/03/01 01:10:45;;;;;;;89.57;13.85;;;2.90;91.80;;;;;;6123871;23;20024;-82
2021/03/01 01:13:11;;;;;;;156.23;15.23;;;3.00;91.90;;;;;;6123906;23;20070;-83
2021/03/01 01:15:37;;;;;;;182.95;15.40;;;2.90;91.90;;;;;;6100285;23;20017;-82
2021/03/01 01:18:04;;;;;;;211.93;17.50;;;3.00;91.90;;;;;;6102634;23;20321;-82
2021/03/01 01:20:30;;;;;;;101.15;12.77;;;2.90;91.90;;;;;;6102615;23;20028;-83
2021/03/01 01:22:56;;;;;;;177.90;15.60;;;2.90;91.80;;;;;;6127351;23;20013;-82
2021/03/01 01:25:22;;;;;;;192.93;15.60;;;2.80;91.90;;;;;;6099754;23;20017;-82
2021/03/01 01:27:48;;;;;;;111.13;13.10;;;2.90;92.00;;;;;;6097355;23;20020;-83
2021/03/01 01:30:19;;;;;;;93.07;12.02;;;2.90;91.90;;;;;;6097888;23;20009;-82
2021/03/01 01:32:45;;;;;;;114.53;11.15;;;2.80;91.90;;;;;;6108903;23;20028;-83
2021/03/01 01:35:11;;;;;;;174.15;14.32;;;2.80;91.90;;;;;;6148492;23;20203;-83
2021/03/01 01:37:38;;;;;;;92.80;9.15;;;2.80;92.00;;;;;;6098834;23;20024;-82
2021/03/01 01:40:04;;;;;;;195.13;13.25;;;2.80;92.30;;;;;;6076516;23;20088;-82
2021/03/01 01:42:30;;;;;;;91.72;10.80;;;2.80;92.10;;;;;;6147727;23;20088;-82
2021/03/01 01:44:57;;;;;;;95.03;10.65;;;2.80;92.00;;;;;;6124044;23;20502;-82
2021/03/01 01:47:22;;;;;;;168.18;13.48;;;2.80;92.00;;;;;;6125047;23;20442;-82
2021/03/01 01:49:48;;;;;;;167.73;13.63;;;2.80;92.00;;;;;;6150297;23;20024;-82
2021/03/01 01:52:14;;;;;;;139.05;12.50;;;2.90;92.10;;;;;;6101124;23;20006;-82
2021/03/01 01:54:39;;;;;;;46.17;9.90;;;2.90;92.10;;;;;;6103027;23;20055;-83
2021/03/01 01:57:06;;;;;;;68.88;9.63;;;2.90;92.10;;;;;;6129669;23;20028;-82
2021/03/01 01:59:31;;;;;;;85.50;9.38;;;2.90;92.20;;;;;;6099411;23;20076;-82
2021/03/01 02:01:57;;;;;;;72.05;11.30;;;2.90;92.10;;;;;;6097472;23;20092;-82
2021/03/01 02:04:31;;;;;;;96.38;11.48;;;2.90;92.10;;;;;;6099125;23;20407;-82
2021/03/01 02:07:04;;;;;;;56.08;10.77;;;2.90;92.10;;;;;;6098852;23;20013;-82
2021/03/01 02:09:48;;;;;;;68.70;10.60;;;2.90;92.10;;;;;;6100717;23;20092;-82
2021/03/01 02:13:04;;;;;;;72.22;11.82;;;3.00;92.10;;;;;;6149217;23;20070;-82
2021/03/01 02:15:48;;;;;;;104.32;13.05;;;3.00;92.10;;;;;;6031409;23;20411;-82
2021/03/01 02:18:14;;;;;;;60.45;10.75;;;3.00;92.10;;;;;;6138031;23;20468;-82
2021/03/01 02:20:44;;;;;;;65.00;12.50;;;3.10;92.10;;;;;;6125086;23;20019;-82
2021/03/01 02:23:10;;;;;;;74.05;13.70;;;3.10;92.10;;;;;;6124030;23;20072;-82
2021/03/01 02:25:36;;;;;;;57.53;11.75;;;3.10;92.10;;;;;;6127264;23;20396;-82
2021/03/01 02:28:03;;;;;;;50.67;11.10;;;3.10;92.10;;;;;;6101783;23;20061;-82
2021/03/01 02:30:46;;;;;;;81.60;13.57;;;3.20;92.10;;;;;;6106299;23;20013;-82
2021/03/01 02:33:19;;;;;;;68.50;13.15;;;3.20;92.10;;;;;;6116334;23;20017;-82
2021/03/01 02:35:49;;;;;;;;;;;3.20;92.10;;;;;;6101888;23;20048;-83
2021/03/01 02:38:15;;;;;;;98.35;15.00;;;3.20;92.20;;;;;;6149206;23;19982;-82
2021/03/01 02:40:41;;;;;;;84.80;15.70;;;3.30;92.00;;;;;;6101025;23;20009;-82
2021/03/01 02:43:06;;;;;;;66.18;14.77;;;3.30;92.00;;;;;;6099544;23;20488;-82
2021/03/01 02:45:32;;;;;;;62.58;15.50;;;3.30;92.00;;;;;;6100307;23;20020;-83
2021/03/01 02:48:00;;;;;;;44.78;13.85;;;3.30;92.00;;;;;;6099372;23;20025;-82
2021/03/01 02:50:25;;;;;;;83.20;15.90;;;3.40;92.20;;;;;;6100012;23;20461;-82
2021/03/01 02:52:51;;;;;;;59.35;14.52;;;3.40;92.10;;;;;;6100431;23;20017;-83
2021/03/01 02:55:17;;;;;;;40.90;14.85;;;3.40;92.10;;;;;;6100476;23;20017;-82
2021/03/01 02:57:44;;;;;;;75.43;16.52;;;3.40;92.20;;;;;;6125221;23;20035;-82
2021/03/01 03:00:10;;;;;;;66.18;14.52;;;3.40;92.10;;;;;;6099364;23;20088;-81
2021/03/01 03:02:37;;;;;;;41.88;13.52;;;3.50;92.20;;;;;;6128148;23;20037;-82
2021/03/01 03:05:03;;;;;;;66.40;15.98;;;3.50;92.20;;;;;;6103318;23;20406;-82
2021/03/01 03:07:29;;;;;;;53.95;15.48;;;3.50;92.20;;;;;;6104917;23;20024;-82
2021/03/01 03:09:55;;;;;;;53.25;15.27;;;3.50;92.20;;;;;;6100343;23;20408;-82
2021/03/01 03:12:20;;;;;;;82.22;16.67;;;3.50;92.20;;;;;;6099335;23;20094;-82
2021/03/01 03:14:46;;;;;;;72.30;15.73;;;3.50;92.20;;;;;;6099039;23;20017;-82
2021/03/01 03:17:12;;;;;;;66.43;15.93;;;3.50;92.20;;;;;;6099089;23;20024;-83
2021/03/01 03:19:41;;;;;;;39.40;15.77;;;3.60;92.20;;;;;;6123687;23;20017;-82
2021/03/01 03:22:06;;;;;;;40.83;14.52;;;3.60;92.30;;;;;;6099153;23;20016;-82
2021/03/01 03:24:32;;;;;;;63.50;17.75;;;3.60;92.20;;;;;;6100103;23;20497;-83
2021/03/01 03:26:58;;;;;;;42.75;14.90;;;3.60;92.30;;;;;;6099489;23;20013;-84
2021/03/01 03:29:24;;;;;;;47.45;16.02;;;3.70;92.30;;;;;;6099135;23;20092;-83
2021/03/01 03:31:49;;;;;;;40.25;15.80;;;3.70;92.30;;;;;;6099167;23;20020;-83
2021/03/01 03:34:15;;;;;;;60.60;16.88;;;3.70;92.30;;;;;;6099507;23;20358;-83
2021/03/01 03:36:49;;;;;;;58.53;16.15;;;3.70;92.20;;;;;;6076113;23;20013;-83
2021/03/01 03:39:15;;;;;;;37.63;14.52;;;3.80;92.30;;;;;;6112196;23;20506;-83
2021/03/01 03:41:41;;;;;;;73.43;16.52;;;3.70;92.20;;;;;;6128223;23;20392;-83
2021/03/01 03:44:08;;;;;;;42.50;14.48;;;3.80;92.20;;;;;;6098840;23;20017;-84
2021/03/01 03:46:34;;;;;;;39.60;14.02;;;3.80;92.30;;;;;;6098392;23;20009;-84
2021/03/01 03:48:59;;;;;;;71.35;16.52;;;3.80;92.30;;;;;;6073469;23;20017;-83
2021/03/01 03:51:28;;;;;;;42.25;14.27;;;3.80;92.30;;;;;;6097649;23;20461;-83
2021/03/01 03:54:02;;;;;;;61.28;15.80;;;3.80;92.40;;;;;;6097987;23;20438;-84
2021/03/01 03:56:29;;;;;;;58.15;14.73;;;3.80;92.30;;;;;;6099321;23;20013;-83
2021/03/01 03:59:02;;;;;;;32.95;11.10;;;3.80;92.30;;;;;;6098069;23;20352;-84
2021/03/01 04:01:29;;;;;;;44.60;12.75;;;3.80;92.30;;;;;;6075069;23;20048;-85
2021/03/01 04:04:02;;;;;;;41.33;12.10;;;3.90;92.30;;;;;;6099098;23;20023;-83
2021/03/01 04:06:28;;;;;;;43.45;12.77;;;3.90;92.30;;;;;;6110536;23;20013;-83
2021/03/01 04:08:54;;;;;;;39.42;12.70;;;3.90;92.30;;;;;;6097472;23;20031;-85
2021/03/01 04:11:20;;;;;;;50.42;13.43;;;3.90;92.30;;;;;;6147098;23;20017;-84
2021/03/01 04:13:46;;;;;;;71.85;16.10;;;3.90;92.30;;;;;;6074767;23;20013;-83
2021/03/01 04:16:12;;;;;;;71.00;15.73;;;3.90;92.30;;;;;;6079242;23;20338;-83
2021/03/01 04:18:38;;;;;;;60.25;14.88;;;3.90;92.40;;;;;;6097869;23;20438;-83
2021/03/01 04:21:06;;;;;;;63.58;15.40;;;3.90;92.30;;;;;;6098356;23;20078;-83
2021/03/01 04:23:32;;;;;;;53.58;13.57;;;3.90;92.40;;;;;;6098218;23;20009;-83
2021/03/01 04:25:58;;;;;;;50.42;13.10;;;3.90;92.30;;;;;;6122233;23;20314;-82
2021/03/01 04:28:24;;;;;;;46.03;13.07;;;3.90;92.30;;;;;;6096735;23;20021;-83
2021/03/01 04:30:49;;;;;;;40.58;11.80;;;3.90;92.40;;;;;;6098519;23;20044;-83
2021/03/01 04:33:17;;;;;;;59.10;13.82;;;4.00;92.40;;;;;;6098715;23;20017;-83
2021/03/01 04:35:44;;;;;;;47.30;12.43;;;4.00;92.40;;;;;;6123700;23;20028;-83
2021/03/01 04:38:09;;;;;;;45.33;12.00;;;4.00;92.40;;;;;;6097289;23;20017;-83
2021/03/01 04:40:35;;;;;;;35.53;10.82;;;4.00;92.40;;;;;;6098414;23;20085;-83
2021/03/01 04:43:01;;;;;;;36.00;11.23;;;3.90;92.40;;;;;;6122567;23;20088;-84
2021/03/01 04:45:27;;;;;;;32.30;9.85;;;4.00;92.40;;;;;;6098744;23;20035;-85
2021/03/01 04:47:52;;;;;;;34.35;10.80;;;4.00;92.50;;;;;;6098122;23;20023;-83
2021/03/01 04:50:18;;;;;;;37.63;11.70;;;4.10;92.40;;;;;;6103671;23;20021;-83
2021/03/01 04:52:44;;;;;;;25.48;10.07;;;4.10;92.40;;;;;;6100569;23;20384;-83
2021/03/01 04:55:11;;;;;;;28.33;9.77;;;4.10;92.40;;;;;;6097649;23;20470;-83
2021/03/01 04:57:37;;;;;;;29.90;10.38;;;4.10;92.40;;;;;;6098383;23;20020;-83
2021/03/01 05:00:08;;;;;;;35.72;12.30;;;4.10;92.50;;;;;;6098632;23;20024;-82
2021/03/01 05:02:33;;;;;;;39.85;11.52;;;4.10;92.40;;;;;;6133777;23;20009;-84
2021/03/01 05:05:04;;;;;;;34.15;11.63;;;4.10;92.40;;;;;;6123157;23;20043;-82
2021/03/01 05:07:30;;;;;;;48.75;14.10;;;4.10;92.40;;;;;;6099387;23;20039;-83
2021/03/01 05:09:55;;;;;;;36.05;12.65;;;4.10;92.30;;;;;;6098472;23;20013;-84
2021/03/01 05:12:21;;;;;;;36.30;13.88;;;4.10;92.40;;;;;;6100107;23;20029;-83
2021/03/01 05:14:47;;;;;;;31.48;12.68;;;4.10;92.40;;;;;;6075956;23;20021;-84
2021/03/01 05:17:13;;;;;;;28.75;12.15;;;4.10;92.40;;;;;;6100144;23;20024;-85
2021/03/01 05:19:39;;;;;;;35.47;13.18;;;4.10;92.30;;;;;;6124697;23;20520;-83
2021/03/01 05:22:05;;;;;;;30.50;12.50;;;4.10;92.30;;;;;;6101198;23;20017;-83
2021/03/01 05:24:30;;;;;;;24.40;10.50;;;4.00;92.30;;;;;;6127302;23;20017;-85
2021/03/01 05:26:57;;;;;;;25.25;11.65;;;4.10;92.30;;;;;;6125547;23;20009;-84
2021/03/01 05:29:23;;;;;;;32.58;11.98;;;4.10;92.30;;;;;;6074814;23;20013;-84
2021/03/01 05:31:48;;;;;;;26.45;10.98;;;4.10;92.30;;;;;;6100026;23;20335;-84
2021/03/01 05:34:15;;;;;;;22.52;9.52;;;4.10;92.30;;;;;;6122436;23;20017;-86
2021/03/01 05:36:41;;;;;;;31.77;10.27;;;4.10;92.30;;;;;;6098820;23;20454;-85
2021/03/01 05:39:07;;;;;;;24.92;9.35;;;4.10;92.30;;;;;;6098608;23;20013;-84
2021/03/01 05:41:33;;;;;;;28.10;9.85;;;4.10;92.20;;;;;;6099725;23;20378;-84
2021/03/01 05:43:59;;;;;;;20.48;9.02;;;4.10;92.20;;;;;;6099777;23;20117;-85
2021/03/01 05:46:24;;;;;;;24.13;9.15;;;4.10;92.30;;;;;;6098593;23;20024;-85
2021/03/01 05:48:50;;;;;;;29.67;10.10;;;4.10;92.30;;;;;;6099392;23;20044;-84
2021/03/01 05:51:16;;;;;;;25.75;9.13;;;4.00;92.30;;;;;;6100045;23;20013;-85
2021/03/01 05:53:43;;;;;;;28.73;9.25;;;4.10;92.30;;;;;;6101655;23;20040;-83
2021/03/01 05:56:09;;;;;;;25.52;9.38;;;4.10;92.30;;;;;;6101451;23;20017;-83
2021/03/01 05:58:35;;;;;;;20.42;8.55;;;4.10;92.30;;;;;;6127354;23;20096;-84
2021/03/01 06:01:02;;;;;;;24.40;8.88;;;4.10;92.30;;;;;;6106761;23;20087;-84
2021/03/01 06:03:29;;;;;;;23.42;8.98;;;4.10;92.40;;;;;;6098658;23;20013;-84
2021/03/01 06:05:55;;;;;;;19.25;7.53;;;4.10;92.30;;;;;;6100043;23;20024;-83
2021/03/01 06:08:22;;;;;;;24.75;9.45;;;4.10;92.30;;;;;;6073434;23;20028;-84
2021/03/01 06:10:48;;;;;;;22.33;8.50;;;4.10;92.30;;;;;;6095029;23;20384;-84
2021/03/01 06:13:16;;;;;;;30.00;8.88;;;4.10;92.40;;;;;;6120297;23;20009;-84
2021/03/01 06:15:42;;;;;;;20.92;8.10;;;4.20;92.40;;;;;;6096263;23;20066;-83
2021/03/01 06:18:09;;;;;;;24.88;8.93;;;4.20;92.40;;;;;;6096529;23;20013;-84
2021/03/01 06:20:35;;;;;;;30.52;9.52;;;4.10;92.40;;;;;;6148161;22;20025;-84
2021/03/01 06:23:01;;;;;;;19.95;8.38;;;4.10;92.40;;;;;;6067824;23;20009;-84
2021/03/01 06:25:27;;;;;;;20.35;7.75;;;4.10;92.50;;;;;;6069784;23;20080;-84
2021/03/01 06:27:57;;;;;;;24.08;7.55;;;4.20;92.50;;;;;;6105236;23;20359;-84
2021/03/01 06:30:30;;;;;;;27.98;8.25;;;4.20;92.50;;;;;;6071219;23;20020;-84
2021/03/01 06:33:09;;;;;;;26.73;8.63;;;4.20;92.50;;;;;;6096265;23;20014;-83
2021/03/01 06:35:38;;;;;;;23.38;8.30;;;4.20;92.50;;;;;;6101299;23;20067;-84
2021/03/01 06:38:14;;;;;;;25.02;8.98;;;4.20;92.50;;;;;;6118154;23;20044;-84
2021/03/01 06:40:40;;;;;;;24.13;8.70;;;4.20;92.80;;;;;;6094123;23;20018;-85
2021/03/01 06:43:12;;;;;;;22.88;8.52;;;4.30;92.50;;;;;;6070411;23;20038;-84
2021/03/01 06:45:38;;;;;;;20.75;7.90;;;4.30;92.50;;;;;;6069469;23;20389;-84
2021/03/01 06:48:04;;;;;;;21.10;8.45;;;4.30;92.60;;;;;;6069423;23;20014;-85
2021/03/01 06:50:42;;;;;;;28.15;8.10;;;4.30;92.50;;;;;;6069267;23;20018;-85
2021/03/01 06:53:12;;;;;;;27.17;7.68;;;4.30;92.50;;;;;;6082028;23;20343;-85
2021/03/01 06:55:38;;;;;;;27.90;8.77;;;4.30;92.50;;;;;;6117959;23;20493;-86
2021/03/01 06:58:25;;;;;;;24.55;9.43;;;4.30;92.50;;;;;;6141583;23;20084;-86
2021/03/01 07:01:16;;;;;;;33.40;9.73;;;4.40;92.60;;;;;;6227159;22;20349;-85
2021/03/01 07:03:44;;;;;;;31.83;8.98;;;4.30;92.50;;;;;;6221294;22;20013;-84
2021/03/01 07:06:10;;;;;;;36.08;10.77;;;4.30;92.50;;;;;;6094531;23;20041;-84
2021/03/01 07:08:46;;;;;;;22.63;10.80;;;4.40;92.60;;;;;;6093748;23;20010;-85
2021/03/01 07:11:30;;;;;;;26.38;10.93;;;4.40;92.60;;;;;;6099530;23;20092;-84
2021/03/01 07:14:00;;;;;;;31.27;9.35;;;4.40;92.90;;;;;;6127413;23;20395;-85
2021/03/01 07:16:26;;;;;;;26.55;9.30;;;4.40;92.60;;;;;;6093411;23;20434;-84
2021/03/01 07:18:52;;;;;;;23.38;8.85;;;4.30;92.60;;;;;;6072619;23;20380;-84
2021/03/01 07:21:17;;;;;;;27.15;8.85;;;4.40;92.60;;;;;;6090351;23;20014;-85
2021/03/01 07:23:47;;;;;;;21.92;8.63;;;4.30;92.50;;;;;;6143345;23;20438;-85
2021/03/01 07:26:14;;;;;;;34.67;10.95;;;4.40;92.60;;;;;;6094417;23;20085;-85
2021/03/01 07:28:48;;;;;;;26.05;8.75;;;4.30;92.50;;;;;;6092584;23;20013;-85
2021/03/01 07:31:16;;;;;;;25.75;9.75;;;4.40;92.60;;;;;;6069610;23;20010;-86
2021/03/01 07:33:42;;;;;;;23.75;8.95;;;4.40;92.50;;;;;;6096795;23;20449;-86
2021/03/01 07:36:08;;;;;;;26.75;9.00;;;4.40;92.60;;;;;;6095409;23;20041;-86
2021/03/01 07:38:34;;;;;;;26.45;9.10;;;4.40;92.60;;;;;;6095337;23;20025;-85
2021/03/01 07:41:03;;;;;;;27.45;9.02;;;4.50;92.50;;;;;;6095664;23;20028;-83
2021/03/01 07:43:33;;;;;;;18.02;8.10;;;4.40;92.60;;;;;;6146976;23;20070;-85
2021/03/01 07:45:59;;;;;;;17.92;7.72;;;4.50;92.60;;;;;;6098921;23;20013;-84
2021/03/01 07:48:36;;;;;;;19.08;7.90;;;4.50;92.60;;;;;;6093910;23;20020;-84
2021/03/01 07:51:02;;;;;;;19.38;7.63;;;4.50;92.60;;;;;;6101919;23;20021;-85
2021/03/01 07:53:45;;;;;;;18.13;6.95;;;4.50;92.60;;;;;;6119480;23;20017;-85
2021/03/01 07:56:22;;;;;;;19.80;7.45;;;4.50;92.60;;;;;;6119564;23;20450;-85
2021/03/01 07:59:02;;;;;;;26.73;8.45;;;4.50;92.60;;;;;;6118415;23;20024;-84
2021/03/01 08:01:28;;;;;;;22.08;7.25;;;4.60;92.60;;;;;;6100182;23;20022;-84
2021/03/01 08:03:55;;;;;;;16.50;7.47;;;4.60;92.60;;;;;;6094168;23;20021;-84
2021/03/01 08:06:21;;;;;;;22.23;7.93;;;4.60;92.60;;;;;;6118308;23;20010;-83
2021/03/01 08:08:48;;;;;;;21.40;8.10;;;4.70;92.60;;;;;;6094308;23;20018;-84
2021/03/01 08:11:14;;;;;;;17.17;7.22;;;4.80;92.70;;;;;;6096099;23;20037;-84
2021/03/01 08:13:40;;;;;;;22.95;7.80;;;4.90;92.70;;;;;;6118871;23;20021;-83
2021/03/01 08:16:19;;;;;;;23.25;8.48;;;5.00;92.70;;;;;;6120426;23;20018;-83
2021/03/01 08:18:58;;;;;;;19.83;7.13;;;5.00;92.60;;;;;;6140873;23;20063;-84
2021/03/01 08:21:25;;;;;;;15.18;7.07;;;5.10;92.70;;;;;;6095975;23;20404;-84
2021/03/01 08:23:51;;;;;;;16.00;6.65;;;5.20;92.60;;;;;;6094943;23;20017;-84
2021/03/01 08:26:32;;;;;;;13.10;6.32;;;5.20;92.60;;;;;;6094320;23;20346;-84
2021/03/01 08:29:02;;;;;;;16.10;6.57;;;5.30;92.60;;;;;;6095510;23;20013;-84
2021/03/01 08:31:29;;;;;;;13.82;5.85;;;5.40;92.50;;;;;;6096353;23;20096;-83
2021/03/01 08:34:31;;;;;;;11.20;5.68;;;5.40;92.50;;;;;;6096170;23;20497;-83
2021/03/01 08:36:57;;;;;;;14.80;6.80;;;5.50;92.40;;;;;;6101469;23;20021;-83
2021/03/01 08:39:58;;;;;;;11.80;5.80;;;5.60;92.30;;;;;;6121610;23;20009;-83
2021/03/01 08:42:43;;;;;;;11.32;5.95;;;5.70;92.30;;;;;;6120190;23;20450;-82
2021/03/01 08:45:10;;;;;;;15.02;6.20;;;5.70;92.10;;;;;;6120922;23;20013;-84
2021/03/01 08:47:48;;;;;;;12.35;6.55;;;5.70;92.00;;;;;;6145486;23;20014;-83
2021/03/01 08:50:14;;;;;;;11.77;6.20;;;5.70;91.90;;;;;;6106104;23;20447;-83
2021/03/01 08:52:46;;;;;;;13.23;6.70;;;5.60;91.90;;;;;;6096324;23;20032;-83
2021/03/01 08:55:13;;;;;;;14.50;6.10;;;5.60;91.80;;;;;;6100609;23;20420;-84
2021/03/01 08:58:00;;;;;;;19.15;7.50;;;5.60;91.80;;;;;;6094459;23;20018;-83
2021/03/01 09:00:28;;;;;;;18.10;8.20;;;5.60;91.80;;;;;;6119659;23;20010;-83
2021/03/01 09:03:16;;;;;;;18.65;7.53;;;5.60;91.80;;;;;;6094773;23;20009;-84
2021/03/01 09:05:44;;;;;;;16.45;6.82;;;5.60;91.90;;;;;;6144216;23;20507;-83
2021/03/01 09:08:10;;;;;;;10.73;5.22;;;5.70;92.00;;;;;;6094435;23;20018;-83
2021/03/01 09:10:41;;;;;;;10.85;5.82;;;5.70;91.80;;;;;;6095508;23;20010;-84
2021/03/01 09:13:08;;;;;;;13.93;5.43;;;5.80;91.90;;;;;;6095647;23;20014;-84
2021/03/01 09:15:34;;;;;;;12.30;5.40;;;5.90;91.80;;;;;;6095486;23;20017;-83
2021/03/01 09:18:00;;;;;;;10.77;5.68;;;6.00;91.70;;;;;;6120877;23;20389;-84
2021/03/01 09:20:29;;;;;;;11.07;5.20;;;6.10;91.70;;;;;;6072799;23;20379;-84
2021/03/01 09:22:57;;;;;;;12.80;5.80;;;6.10;91.60;;;;;;6107300;23;20014;-85
2021/03/01 09:25:29;;;;;;;10.57;4.68;;;6.20;91.40;;;;;;6096265;23;20344;-84
2021/03/01 09:27:55;;;;;;;9.32;5.40;;;6.20;91.30;;;;;;6123314;23;20024;-84
2021/03/01 09:30:22;;;;;;;8.85;5.13;;;6.20;91.20;;;;;;6097407;23;20014;-83
2021/03/01 09:33:02;;;;;;;13.10;5.60;;;6.10;91.10;;;;;;6095311;23;20045;-83
2021/03/01 09:35:32;;;;;;;12.55;6.10;;;6.20;91.10;;;;;;6095886;23;20013;-84
2021/03/01 09:37:58;;;;;;;10.43;5.25;;;6.20;91.10;;;;;;6119326;23;20010;-84
2021/03/01 09:40:24;;;;;;;13.00;5.68;;;6.20;91.10;;;;;;6070973;23;20417;-84
2021/03/01 09:42:55;;;;;;;17.48;5.82;;;6.30;91.10;;;;;;6095312;23;20036;-83
2021/03/01 09:45:21;;;;;;;12.68;5.00;;;6.40;91.30;;;;;;6072361;23;20017;-84
2021/03/01 09:47:48;;;;;;;12.52;5.18;;;6.50;91.10;;;;;;6094542;23;20020;-83
2021/03/01 09:50:14;;;;;;;12.52;5.32;;;6.60;90.90;;;;;;6094710;23;20075;-83
2021/03/01 09:52:40;;;;;;;11.75;4.82;;;6.60;90.60;;;;;;6096803;23;20021;-83
2021/03/01 09:55:08;;;;;;;10.52;4.85;;;6.60;90.60;;;;;;6095412;23;20520;-84
2021/03/01 09:57:34;;;;;;;16.13;5.90;;;6.60;90.60;;;;;;6121003;23;20017;-83
2021/03/01 10:00:00;;;;;;;11.85;5.72;;;6.70;90.60;;;;;;6096733;23;20017;-84
2021/03/01 10:02:25;;;;;;;10.77;5.55;;;6.80;90.50;;;;;;6122896;23;20021;-85
2021/03/01 10:04:52;;;;;;;15.93;5.72;;;6.90;90.40;;;;;;6075255;23;20017;-85
2021/03/01 10:07:22;;;;;;;14.45;5.03;;;6.90;90.30;;;;;;6119471;23;20041;-83
2021/03/01 10:09:49;;;;;;;15.20;5.43;;;7.00;90.40;;;;;;6118653;23;20306;-84
2021/03/01 10:12:16;;;;;;;17.15;6.05;;;7.10;90.40;;;;;;6099649;23;20032;-84
2021/03/01 10:14:46;;;;;;;12.15;5.60;;;7.20;90.30;;;;;;6098229;23;20017;-82
2021/03/01 10:17:19;;;;;;;11.98;5.70;;;7.30;90.30;;;;;;6222174;23;20108;-84
2021/03/01 10:20:03;;;;;;;13.98;5.97;;;7.30;89.40;;;;;;6095929;23;20013;-87
2021/03/01 10:22:30;;;;;;;11.82;5.30;;;7.10;87.90;;;;;;6120841;23;20048;-82
2021/03/01 10:24:56;;;;;;;12.27;4.97;;;7.00;88.80;;;;;;6098625;23;20028;-84
2021/03/01 10:27:21;;;;;;;15.57;5.15;;;7.00;89.10;;;;;;6073568;23;20013;-84
2021/03/01 10:29:51;;;;;;;6.38;3.95;;;7.00;89.00;;;;;;6122411;23;20052;-85
2021/03/01 10:32:26;;;;;;;15.15;5.10;;;7.00;88.80;;;;;;6075148;23;20013;-85
2021/03/01 10:35:11;;;;;;;12.35;5.28;;;7.00;88.70;;;;;;6098060;23;20404;-86
2021/03/01 10:37:39;;;;;;;9.43;4.57;;;7.10;88.70;;;;;;6126081;23;20042;-85
2021/03/01 10:40:05;;;;;;;10.57;5.00;;;7.10;88.50;;;;;;6098762;23;20027;-84
2021/03/01 10:42:42;;;;;;;10.45;5.30;;;7.10;87.80;;;;;;6097940;23;20010;-85
2021/03/01 10:45:42;;;;;;;13.20;5.65;;;7.10;87.80;;;;;;6123805;23;20014;-86
2021/03/01 10:48:08;;;;;;;11.38;5.72;;;7.00;88.00;;;;;;6093582;23;20013;-85
2021/03/01 10:50:34;;;;;;;13.63;5.57;;;7.00;88.00;;;;;;6094106;23;20021;-85
2021/03/01 10:53:00;;;;;;;10.68;5.70;;;6.90;87.50;;;;;;6094561;23;20516;-85
2021/03/01 10:55:26;;;;;;;15.77;6.28;;;6.90;87.60;;;;;;6094585;23;20091;-84
2021/03/01 10:57:52;;;;;;;10.35;5.38;;;6.90;87.60;;;;;;6118635;23;20036;-85
2021/03/01 11:00:18;;;;;;;13.18;5.40;;;6.90;87.90;;;;;;6094732;23;20010;-86
2021/03/01 11:02:43;;;;;;;13.10;5.70;;;7.10;88.30;;;;;;6119052;23;20013;-85
2021/03/01 11:05:10;;;;;;;9.35;4.55;;;7.20;87.90;;;;;;6118618;23;20059;-86
2021/03/01 11:07:35;;;;;;;15.15;4.80;;;7.30;87.80;;;;;;6094490;23;20080;-86
2021/03/01 11:10:02;;;;;;;8.98;4.45;;;7.50;87.20;;;;;;6070773;23;20017;-86
2021/03/01 11:12:28;;;;;;;9.20;4.90;;;7.60;87.30;;;;;;6098473;23;20389;-85
2021/03/01 11:14:55;;;;;;;10.43;4.93;;;7.70;86.80;;;;;;6070206;23;20360;-86
2021/03/01 11:17:25;;;;;;;9.40;4.40;;;7.90;86.40;;;;;;6093745;23;20017;-88
2021/03/01 11:19:51;;;;;;;15.38;6.15;;;7.80;84.20;;;;;;6094898;23;20010;-84
2021/03/01 11:22:20;;;;;;;13.10;5.28;;;7.50;84.40;;;;;;6069804;23;20010;-84
2021/03/01 11:24:48;;;;;;;10.85;4.95;;;7.40;84.80;;;;;;6071687;23;20016;-86
2021/03/01 11:27:14;;;;;;;14.10;5.22;;;7.40;85.20;;;;;;6093950;23;20328;-87
2021/03/01 11:29:43;;;;;;;10.23;5.55;;;7.40;85.30;;;;;;6094063;23;20468;-84
2021/03/01 11:32:09;;;;;;;14.20;5.63;;;7.50;85.40;;;;;;6093748;23;20052;-86
2021/03/01 11:34:52;;;;;;;;;;;7.60;84.90;;;;;;6100010;23;20017;-84
2021/03/01 11:37:19;;;;;;;12.13;5.30;;;7.80;85.50;;;;;;6094780;23;19920;-88
2021/03/01 11:39:50;;;;;;;13.45;5.95;;;7.90;84.90;;;;;;6094877;23;20059;-85
2021/03/01 11:42:15;;;;;;;11.30;5.40;;;8.00;83.90;;;;;;6095089;23;20013;-85
2021/03/01 11:44:48;;;;;;;11.80;4.97;;;8.10;83.50;;;;;;6100793;23;20013;-87
2021/03/01 11:47:14;;;;;;;11.43;4.72;;;8.10;83.00;;;;;;6094396;23;20148;-85
2021/03/01 11:49:41;;;;;;;12.48;5.63;;;8.10;82.80;;;;;;6070637;23;20465;-87
2021/03/01 11:52:14;;;;;;;10.88;5.30;;;8.20;82.70;;;;;;6095020;23;20104;-85
2021/03/01 11:54:41;;;;;;;12.80;5.18;;;8.20;82.50;;;;;;6073016;23;20100;-86
2021/03/01 11:57:07;;;;;;;10.70;5.00;;;8.30;82.20;;;;;;6069345;23;20061;-85
2021/03/01 11:59:40;;;;;;;10.75;5.35;;;8.30;81.70;;;;;;6095800;23;20114;-88
2021/03/01 12:02:11;;;;;;;11.65;5.40;;;8.30;81.60;;;;;;6095118;23;20010;-84
2021/03/01 12:04:45;;;;;;;11.63;4.68;;;8.30;81.70;;;;;;6117983;23;20016;-83
2021/03/01 12:07:17;;;;;;;8.30;4.80;;;8.40;81.80;;;;;;6094026;23;20062;-87
2021/03/01 12:09:45;;;;;;;11.77;5.65;;;8.50;81.90;;;;;;6128308;23;20017;-85
2021/03/01 12:12:16;;;;;;;11.90;5.22;;;8.60;82.20;;;;;;6094018;23;20014;-85
2021/03/01 12:14:44;;;;;;;11.55;5.68;;;8.70;82.50;;;;;;6069683;23;20113;-87
2021/03/01 12:17:20;;;;;;;9.70;5.20;;;8.80;82.40;;;;;;6073605;23;20116;-88
2021/03/01 12:19:49;;;;;;;11.43;5.20;;;9.10;82.10;;;;;;6075662;23;20033;-86
2021/03/01 12:22:30;;;;;;;11.73;5.60;;;9.30;81.50;;;;;;6094333;23;20034;-88
2021/03/01 12:25:00;;;;;;;11.20;5.45;;;9.20;81.00;;;;;;6128321;23;20489;-87
2021/03/01 12:27:25;;;;;;;13.20;5.35;;;9.20;81.20;;;;;;6094503;23;20152;-88
2021/03/01 12:29:52;;;;;;;11.88;5.00;;;9.20;80.70;;;;;;6097632;23;20014;-87
2021/03/01 12:32:32;;;;;;;8.93;4.43;;;9.30;79.70;;;;;;6071880;23;20021;-88
2021/03/01 12:34:59;;;;;;;10.32;4.75;;;9.50;78.70;;;;;;6072903;23;20406;-89
2021/03/01 12:37:31;;;;;;;9.18;4.75;;;9.70;77.80;;;;;;6095393;23;20009;-86
2021/03/01 12:39:57;;;;;;;10.13;4.65;;;9.80;76.50;;;;;;6095249;23;20088;-88
2021/03/01 12:42:27;;;;;;;12.43;5.03;;;10.00;75.40;;;;;;6094154;23;20029;-89
2021/03/01 12:44:58;;;;;;;9.15;4.40;;;10.00;75.40;;;;;;6072143;23;20071;-89
2021/03/01 12:47:24;;;;;;;10.02;4.78;;;10.20;74.70;;;;;;6070294;23;20010;-89
2021/03/01 12:49:50;;;;;;;7.40;4.25;;;10.40;74.00;;;;;;6094164;23;20095;-89